createdAt,value
2018-08-12T00:00:16.613Z,99563.95
2018-08-12T00:03:19.058Z,99559.19
2018-08-12T00:06:21.304Z,99556.52
2018-08-12T00:09:23.688Z,99550.75
2018-08-12T00:12:26.064Z,99553.92
2018-08-12T00:15:28.452Z,99553.38
2018-08-12T00:18:30.740Z,99548.48
2018-08-12T00:21:33.060Z,99545.92
2018-08-12T00:24:35.355Z,99551.40
2018-08-12T00:27:37.748Z,99544.79
2018-08-12T00:30:40.010Z,99546.63
2018-08-12T00:33:42.402Z,99542.87
2018-08-12T00:36:44.675Z,99543.28
2018-08-12T00:39:47.127Z,99541.59
2018-08-12T00:42:49.406Z,99536.67
2018-08-12T00:45:51.701Z,99532.72
2018-08-12T00:48:53.908Z,99533.84
2018-08-12T00:51:56.309Z,99531.08
2018-08-12T00:54:58.611Z,99532.72
2018-08-12T00:58:01.958Z,99529.14
2018-08-12T01:01:04.300Z,99521.30
2018-08-12T01:04:06.647Z,99517.34
2018-08-12T01:07:08.957Z,99522.59
2018-08-12T01:10:11.801Z,99519.13
2018-08-12T01:13:14.014Z,99520.73
2018-08-12T01:16:16.234Z,99523.95
2018-08-12T01:19:19.817Z,99516.23
2018-08-12T01:22:22.134Z,99517.98
2018-08-12T01:25:24.451Z,99511.61
2018-08-12T01:28:26.910Z,99503.48
2018-08-12T01:31:29.167Z,99509.19
2018-08-12T01:34:31.396Z,99507.10
2018-08-12T01:37:33.625Z,99511.89
2018-08-12T01:40:35.814Z,99501.73
2018-08-12T01:43:38.163Z,99502.56
2018-08-12T01:46:40.447Z,99504.20
2018-08-12T01:49:42.703Z,99507.86
2018-08-12T01:52:44.966Z,99505.26
2018-08-12T01:55:47.152Z,99512.16
2018-08-12T01:58:49.464Z,99507.91
2018-08-12T02:01:51.898Z,99513.13
2018-08-12T02:04:54.084Z,99519.70
2018-08-12T02:07:56.472Z,99513.03
2018-08-12T02:10:58.829Z,99513.95
2018-08-12T02:14:01.073Z,99502.27
2018-08-12T02:17:03.403Z,99499.08
2018-08-12T02:20:06.105Z,99499.80
2018-08-12T02:23:09.223Z,99492.26
2018-08-12T02:26:11.603Z,99486.70
2018-08-12T02:29:13.918Z,99481.20
2018-08-12T02:32:16.207Z,99482.79
2018-08-12T02:35:18.541Z,99477.58
2018-08-12T02:38:20.896Z,99474.16
2018-08-12T02:41:23.186Z,99470.41
2018-08-12T02:44:25.539Z,99472.01
2018-08-12T02:47:29.044Z,99468.00
2018-08-12T02:50:32.331Z,99458.11
2018-08-12T02:53:34.712Z,99458.92
2018-08-12T02:56:37.038Z,99455.30
2018-08-12T02:59:39.508Z,99451.63
2018-08-12T03:02:41.755Z,99456.32
2018-08-12T03:05:44.091Z,99441.11
2018-08-12T03:08:46.353Z,99433.34
2018-08-12T03:11:48.567Z,99427.94
2018-08-12T03:14:50.889Z,99423.34
2018-08-12T03:17:53.202Z,99421.95
2018-08-12T03:20:55.547Z,99410.75
2018-08-12T03:23:58.162Z,99418.72
2018-08-12T03:27:00.477Z,99417.30
2018-08-12T03:30:02.893Z,99417.88
2018-08-12T03:33:05.461Z,99417.14
2018-08-12T03:36:07.764Z,99416.80
2018-08-12T03:39:11.276Z,99414.20
2018-08-12T03:42:13.625Z,99407.74
2018-08-12T03:45:15.844Z,99408.19
2018-08-12T03:48:18.233Z,99403.21
2018-08-12T03:51:20.471Z,99398.34
2018-08-12T03:54:22.831Z,99395.36
2018-08-12T03:57:25.151Z,99387.11
2018-08-12T04:00:27.436Z,99384.89
2018-08-12T04:03:30.007Z,99376.78
2018-08-12T04:06:32.288Z,99375.81
2018-08-12T04:09:34.949Z,99376.92
2018-08-12T04:12:37.550Z,99377.41
2018-08-12T04:15:39.795Z,99373.06
2018-08-12T04:18:42.157Z,99368.96
2018-08-12T04:21:44.439Z,99368.00
2018-08-12T04:24:46.662Z,99382.33
2018-08-12T04:27:48.891Z,99378.47
2018-08-12T04:30:51.121Z,99376.40
2018-08-12T04:33:53.392Z,99381.17
2018-08-12T04:36:55.644Z,99379.72
2018-08-12T04:39:57.852Z,99377.20
2018-08-12T04:43:00.145Z,99377.55
2018-08-12T04:46:02.496Z,99379.09
2018-08-12T04:49:04.980Z,99374.91
2018-08-12T04:52:07.238Z,99368.75
2018-08-12T04:55:09.445Z,99364.56
2018-08-12T04:58:11.740Z,99361.88
2018-08-12T05:01:13.990Z,99370.27
2018-08-12T05:04:16.173Z,99359.27
2018-08-12T05:07:18.370Z,99354.63
2018-08-12T05:10:20.730Z,99355.91
2018-08-12T05:13:23.166Z,99363.58
2018-08-12T05:16:25.381Z,99353.07
2018-08-12T05:19:27.691Z,99357.11
2018-08-12T05:22:30.022Z,99350.38
2018-08-12T05:25:32.525Z,99355.77
2018-08-12T05:28:34.886Z,99352.73
2018-08-12T05:31:37.203Z,99348.09
2018-08-12T05:34:39.421Z,99340.50
2018-08-12T05:37:42.315Z,99325.89
2018-08-12T05:40:45.072Z,99332.69
2018-08-12T05:43:47.990Z,99350.01
2018-08-12T05:46:50.281Z,99348.75
2018-08-12T05:49:53.535Z,99393.89
2018-08-12T05:52:55.827Z,99374.03
2018-08-12T05:55:58.058Z,99367.73
2018-08-12T05:59:00.305Z,99361.70
2018-08-12T06:02:02.697Z,99346.16
2018-08-12T06:05:05.600Z,99328.57
2018-08-12T06:08:07.970Z,99365.54
2018-08-12T06:11:10.290Z,99356.14
2018-08-12T06:14:13.717Z,99339.48
2018-08-12T06:17:15.980Z,99342.05
2018-08-12T06:20:18.300Z,99341.83
2018-08-12T06:23:20.559Z,99337.98
2018-08-12T06:26:22.901Z,99345.92
2018-08-12T06:29:25.189Z,99331.84
2018-08-12T06:32:27.389Z,99338.25
2018-08-12T06:35:29.669Z,99326.62
2018-08-12T06:38:32.589Z,99335.78
2018-08-12T06:41:34.805Z,99335.88
2018-08-12T06:44:37.132Z,99322.27
2018-08-12T06:47:39.939Z,99320.44
2018-08-12T06:50:42.232Z,99328.25
2018-08-12T06:53:44.591Z,99331.30
2018-08-12T06:56:46.782Z,99301.27
2018-08-12T06:59:49.080Z,99298.53
2018-08-12T07:02:51.358Z,99286.33
2018-08-12T07:05:53.670Z,99275.00
2018-08-12T07:08:55.973Z,99217.73
2018-08-12T07:11:58.202Z,99229.80
2018-08-12T07:15:00.469Z,99291.63
2018-08-12T07:18:02.867Z,99265.62
2018-08-12T07:21:05.235Z,99284.45
2018-08-12T07:24:07.508Z,99294.42
2018-08-12T07:27:09.768Z,99325.98
2018-08-12T07:30:13.558Z,99262.56
2018-08-12T07:33:15.892Z,99290.94
2018-08-12T07:36:18.812Z,99338.91
2018-08-12T07:39:21.025Z,99303.70
2018-08-12T07:42:23.180Z,99289.02
2018-08-12T07:45:25.490Z,99287.63
2018-08-12T07:48:27.835Z,99301.06
2018-08-12T07:51:30.116Z,99261.34
2018-08-12T07:54:32.336Z,99307.55
2018-08-12T07:57:34.672Z,99287.63
2018-08-12T08:00:36.974Z,99276.87
2018-08-12T08:03:39.180Z,99277.45
2018-08-12T08:06:41.413Z,99275.92
2018-08-12T08:09:43.611Z,99272.80
2018-08-12T08:12:46.002Z,99269.58
2018-08-12T08:15:48.333Z,99269.27
2018-08-12T08:18:50.584Z,99265.94
2018-08-12T08:21:52.867Z,99259.84
2018-08-12T08:24:55.149Z,99260.70
2018-08-12T08:27:57.342Z,99260.58
2018-08-12T08:30:59.738Z,99258.66
2018-08-12T08:34:01.973Z,99254.65
2018-08-12T08:37:04.228Z,99252.69
2018-08-12T08:40:08.740Z,99252.00
2018-08-12T08:43:10.990Z,99252.91
2018-08-12T08:46:13.461Z,99247.95
2018-08-12T08:49:15.725Z,99251.58
2018-08-12T08:52:22.165Z,99243.38
2018-08-12T08:55:25.529Z,99240.70
2018-08-12T08:58:27.776Z,99238.98
2018-08-12T09:01:30.228Z,99226.02
2018-08-12T09:04:32.398Z,99208.94
2018-08-12T09:07:34.883Z,99204.60
2018-08-12T09:10:37.212Z,99219.47
2018-08-12T09:13:39.458Z,99201.29
2018-08-12T09:16:44.126Z,99183.00
2018-08-12T09:19:46.629Z,99179.13
2018-08-12T09:22:48.916Z,99179.80
2018-08-12T09:25:51.258Z,99156.92
2018-08-12T09:28:53.740Z,99133.55
2018-08-12T09:31:56.123Z,99142.13
2018-08-12T09:34:58.489Z,99137.94
2018-08-12T09:38:00.787Z,99089.20
2018-08-12T09:41:03.070Z,99128.72
2018-08-12T09:44:05.551Z,99094.23
2018-08-12T09:47:07.820Z,99082.83
2018-08-12T09:50:12.083Z,99157.14
2018-08-12T09:53:14.320Z,99142.80
2018-08-12T09:56:17.423Z,99117.67
2018-08-12T09:59:19.709Z,99109.60
2018-08-12T10:02:22.053Z,99116.41
2018-08-12T10:05:24.382Z,99101.08
2018-08-12T10:08:26.827Z,99001.70
2018-08-12T10:11:29.255Z,98954.44
2018-08-12T10:14:31.507Z,98922.73
2018-08-12T10:17:34.116Z,98976.95
2018-08-12T10:20:36.463Z,98967.69
2018-08-12T10:23:38.739Z,98988.88
2018-08-12T10:26:45.889Z,98939.59
2018-08-12T10:29:48.287Z,99023.83
2018-08-12T10:32:50.757Z,99011.20
2018-08-12T10:35:53.080Z,99015.48
2018-08-12T10:38:55.365Z,99004.70
2018-08-12T10:41:57.665Z,99014.38
2018-08-12T10:45:00.075Z,99025.41
2018-08-12T10:48:02.626Z,98995.81
2018-08-12T10:51:05.122Z,98925.48
2018-08-12T10:54:07.523Z,98975.55
2018-08-12T10:57:09.962Z,98988.45
2018-08-12T11:00:20.736Z,98985.50
2018-08-12T11:03:23.062Z,98969.16
2018-08-12T11:06:25.475Z,98911.02
2018-08-12T11:09:27.782Z,98919.55
2018-08-12T11:12:30.360Z,98905.89
2018-08-12T11:15:32.526Z,98706.59
2018-08-12T11:18:35.355Z,98801.48
2018-08-12T11:21:37.817Z,98715.13
2018-08-12T11:24:43.971Z,98702.53
2018-08-12T11:27:46.193Z,98766.08
2018-08-12T11:30:48.554Z,98678.55
2018-08-12T11:33:50.778Z,98632.98
2018-08-12T11:36:53.212Z,98714.56
2018-08-12T11:39:55.476Z,98568.37
2018-08-12T11:42:57.954Z,98596.06
2018-08-12T11:46:00.334Z,98529.02
2018-08-12T11:49:03.849Z,98585.09
2018-08-12T11:52:06.200Z,98396.47
2018-08-12T11:55:10.524Z,98351.25
2018-08-12T11:58:12.850Z,98349.33
2018-08-12T12:01:15.220Z,98379.34
2018-08-12T12:04:17.531Z,98561.71
2018-08-12T12:07:19.740Z,98562.97
2018-08-12T12:10:22.674Z,98667.14
2018-08-12T12:13:24.986Z,98668.03
2018-08-12T12:16:27.395Z,98723.17
2018-08-12T12:19:29.685Z,98870.16
2018-08-12T12:22:31.989Z,98914.58
2018-08-12T12:25:34.373Z,98897.77
2018-08-12T12:28:39.682Z,98784.42
2018-08-12T12:31:42.108Z,98741.03
2018-08-12T12:34:45.377Z,98725.38
2018-08-12T12:37:47.794Z,98899.66
2018-08-12T12:40:54.380Z,98890.28
2018-08-12T12:46:52.860Z,98796.15
2018-08-12T12:49:55.132Z,98811.20
2018-08-12T12:52:57.477Z,98703.60
2018-08-12T12:55:59.824Z,98677.60
2018-08-12T12:59:02.234Z,98841.37
2018-08-12T13:02:04.684Z,98781.05
2018-08-12T13:05:09.125Z,98806.26
2018-08-12T13:08:11.542Z,98745.06
2018-08-12T13:11:15.727Z,98728.24
2018-08-12T13:14:18.064Z,98750.36
2018-08-12T13:17:20.348Z,98760.03
2018-08-12T13:20:22.646Z,98797.67
2018-08-12T13:23:25.049Z,98779.97
2018-08-12T13:26:27.410Z,98658.23
2018-08-12T13:29:29.658Z,98645.47
2018-08-12T13:32:31.908Z,98599.41
2018-08-12T13:35:34.460Z,98464.56
2018-08-12T13:38:36.744Z,98485.13
2018-08-12T13:41:39.045Z,98433.75
2018-08-12T13:44:41.618Z,98623.67
2018-08-12T13:47:44.710Z,98568.25
2018-08-12T13:50:47.021Z,98462.01
2018-08-12T13:53:50.600Z,98434.88
2018-08-12T13:56:53.011Z,98592.01
2018-08-12T13:59:55.393Z,98715.28
2018-08-12T14:02:57.815Z,98658.92
2018-08-12T14:06:00.072Z,98600.53
2018-08-12T14:09:02.414Z,98523.89
2018-08-12T14:12:04.725Z,98441.70
2018-08-12T14:15:09.467Z,98398.38
2018-08-12T14:18:11.857Z,98334.70
2018-08-12T14:25:20.397Z,98393.85
2018-08-12T14:28:22.579Z,98424.97
2018-08-12T14:31:24.884Z,98547.83
2018-08-12T14:34:27.217Z,98530.63
2018-08-12T14:37:35.384Z,98406.41
2018-08-12T14:40:39.078Z,98395.07
2018-08-12T14:43:42.631Z,98364.91
2018-08-12T14:46:45.033Z,98361.39
2018-08-12T14:49:47.388Z,98286.09
2018-08-12T14:52:51.010Z,98359.88
2018-08-12T14:55:54.544Z,98457.90
2018-08-12T14:58:57.032Z,98468.97
2018-08-12T15:02:09.972Z,98443.49
2018-08-12T15:05:14.651Z,98473.18
2018-08-12T15:08:17.680Z,98507.94
2018-08-12T15:11:28.003Z,98444.92
2018-08-12T15:14:30.373Z,98297.69
2018-08-12T15:17:32.653Z,98219.53
2018-08-12T15:20:35.722Z,98270.25
2018-08-12T15:23:38.075Z,98288.95
2018-08-12T15:26:41.559Z,98311.21
2018-08-12T15:29:51.947Z,98344.14
2018-08-12T15:32:55.175Z,98330.11
2018-08-12T15:35:59.205Z,98288.21
2018-08-12T15:39:01.636Z,98333.97
2018-08-12T15:42:04.030Z,98275.25
2018-08-12T15:45:08.347Z,98316.93
2018-08-12T15:48:10.651Z,98303.91
2018-08-12T15:51:19.680Z,98231.47
2018-08-12T15:54:22.042Z,98268.84
2018-08-12T15:57:24.328Z,98285.41
2018-08-12T16:00:26.601Z,98331.73
2018-08-12T16:03:29.028Z,98378.03
2018-08-12T16:06:31.259Z,98387.31
2018-08-12T16:09:34.151Z,98389.52
2018-08-12T16:12:36.624Z,98522.32
2018-08-12T16:15:38.837Z,98559.91
2018-08-12T16:18:41.318Z,98556.06
2018-08-12T16:21:43.671Z,98598.77
2018-08-12T16:24:46.053Z,98597.09
2018-08-12T16:27:48.979Z,98569.43
2018-08-12T16:30:51.330Z,98583.00
2018-08-12T16:33:55.530Z,98604.97
2018-08-12T16:37:07.333Z,98694.94
2018-08-12T16:40:11.615Z,98805.27
2018-08-12T16:43:13.936Z,98886.89
2018-08-12T16:46:16.255Z,98974.84
2018-08-12T16:49:18.547Z,98991.22
2018-08-12T16:52:20.895Z,98976.50
2018-08-12T16:55:23.169Z,98925.52
2018-08-12T16:58:25.380Z,98914.02
2018-08-12T17:01:27.733Z,98833.86
2018-08-12T17:04:30.025Z,98754.77
2018-08-12T17:07:32.354Z,98697.72
2018-08-12T17:10:34.618Z,98753.92
2018-08-12T17:13:36.805Z,98783.78
2018-08-12T17:16:39.014Z,98854.20
2018-08-12T17:19:41.361Z,98879.85
2018-08-12T17:22:44.245Z,98898.21
2018-08-12T17:25:46.646Z,98892.83
2018-08-12T17:28:48.785Z,98775.57
2018-08-12T17:31:51.054Z,98685.89
2018-08-12T17:34:53.244Z,98724.47
2018-08-12T17:37:56.437Z,98736.36
2018-08-12T17:40:58.910Z,98772.64
2018-08-12T17:44:01.200Z,98791.18
2018-08-12T17:47:03.485Z,98825.30
2018-08-12T17:50:06.406Z,98812.19
2018-08-12T17:53:08.636Z,98786.78
2018-08-12T17:56:10.996Z,98774.22
2018-08-12T17:59:13.250Z,98735.70
2018-08-12T18:02:15.455Z,98710.79
2018-08-12T18:05:17.861Z,98695.78
2018-08-12T18:08:20.145Z,98662.61
2018-08-12T18:11:22.433Z,98643.36
2018-08-12T18:14:25.726Z,98628.14
2018-08-12T18:17:28.127Z,98603.56
2018-08-12T18:20:31.517Z,98582.42
2018-08-12T18:23:33.874Z,98566.48
2018-08-12T18:26:36.283Z,98562.67
2018-08-12T18:29:38.816Z,98571.30
2018-08-12T18:32:41.246Z,98573.57
2018-08-12T18:35:43.535Z,98608.94
2018-08-12T18:38:46.750Z,98623.05
2018-08-12T18:41:49.101Z,98621.56
2018-08-12T18:44:52.209Z,98628.50
2018-08-12T18:47:54.551Z,98624.52
2018-08-12T18:50:56.944Z,98611.69
2018-08-12T18:53:59.318Z,98607.14
2018-08-12T18:57:02.930Z,98604.12
2018-08-12T19:00:06.983Z,98603.80
2018-08-12T19:03:09.346Z,98600.52
2018-08-12T19:06:11.678Z,98596.20
2018-08-12T19:09:13.977Z,98595.63
2018-08-12T19:12:16.254Z,98585.48
2018-08-12T19:15:20.283Z,98590.95
2018-08-12T19:18:22.619Z,98594.04
2018-08-12T19:21:24.996Z,98600.73
2018-08-12T19:24:27.265Z,98596.95
2018-08-12T19:27:29.686Z,98602.78
2018-08-12T19:30:31.860Z,98594.65
2018-08-12T19:33:34.133Z,98596.35
2018-08-12T19:36:36.393Z,98600.75
2018-08-12T19:39:38.633Z,98599.31
2018-08-12T19:42:41.101Z,98596.27
2018-08-12T19:45:43.374Z,98600.58
2018-08-12T19:48:45.744Z,98604.26
2018-08-12T19:51:48.074Z,98599.36
2018-08-12T19:54:50.445Z,98598.66
2018-08-12T19:57:53.447Z,98601.07
2018-08-12T20:00:55.688Z,98603.48
2018-08-12T20:03:57.964Z,98601.74
2018-08-12T20:07:00.613Z,98600.55
2018-08-12T20:10:03.237Z,98593.50
2018-08-12T20:13:05.813Z,98599.45
2018-08-12T20:16:08.366Z,98592.48
2018-08-12T20:19:10.806Z,98598.94
2018-08-12T20:22:14.902Z,98594.75
2018-08-12T20:25:17.179Z,98596.73
2018-08-12T20:28:19.499Z,98592.77
2018-08-12T20:31:21.894Z,98586.80
2018-08-12T20:34:24.196Z,98590.53
2018-08-12T20:37:26.851Z,98583.86
2018-08-12T20:40:29.277Z,98579.12
2018-08-12T20:43:31.550Z,98579.02
2018-08-12T20:46:33.801Z,98571.48
2018-08-12T20:49:36.152Z,98574.14
2018-08-12T20:52:38.333Z,98573.30
2018-08-12T20:55:40.645Z,98570.63
2018-08-12T20:58:43.102Z,98572.45
2018-08-12T21:01:45.372Z,98567.69
2018-08-12T21:04:47.577Z,98561.99
2018-08-12T21:07:49.867Z,98555.83
2018-08-12T21:10:53.852Z,98565.73
2018-08-12T21:13:56.146Z,98557.79
2018-08-12T21:16:58.526Z,98560.34
2018-08-12T21:20:00.820Z,98543.67
2018-08-12T21:23:03.296Z,98549.31
2018-08-12T21:26:05.623Z,98554.53
2018-08-12T21:29:09.605Z,98543.63
2018-08-12T21:32:11.904Z,98544.63
2018-08-12T21:35:14.210Z,98542.20
2018-08-12T21:38:16.492Z,98542.91
2018-08-12T21:41:18.736Z,98544.86
2018-08-12T21:44:21.031Z,98551.47
2018-08-12T21:47:23.333Z,98542.97
2018-08-12T21:50:25.681Z,98538.92
2018-08-12T21:53:28.024Z,98538.14
2018-08-12T21:56:30.298Z,98538.39
2018-08-12T21:59:32.565Z,98534.16
2018-08-12T22:02:34.866Z,98541.04
2018-08-12T22:05:38.122Z,98542.75
2018-08-12T22:08:40.431Z,98538.72
2018-08-12T22:11:42.692Z,98536.94
2018-08-12T22:14:44.984Z,98534.83
2018-08-12T22:17:47.264Z,98537.36
2018-08-12T22:20:49.528Z,98535.95
2018-08-12T22:23:51.860Z,98536.56
2018-08-12T22:26:54.103Z,98532.63
2018-08-12T22:29:56.350Z,98535.13
2018-08-12T22:32:58.713Z,98531.71
2018-08-12T22:36:00.962Z,98528.07
2018-08-12T22:39:05.009Z,98527.36
2018-08-12T22:42:07.291Z,98527.16
2018-08-12T22:45:10.757Z,98523.22
2018-08-12T22:48:13.036Z,98521.30
2018-08-12T22:51:15.356Z,98524.73
2018-08-12T22:54:17.608Z,98529.28
2018-08-12T22:57:19.964Z,98524.02
2018-08-12T23:00:22.217Z,98527.67
2018-08-12T23:03:24.538Z,98520.53
2018-08-12T23:06:26.870Z,98524.38
2018-08-12T23:09:29.821Z,98519.61
2018-08-12T23:12:32.113Z,98528.61
2018-08-12T23:16:11.580Z,98518.25
2018-08-12T23:19:13.968Z,98518.34
2018-08-12T23:22:16.229Z,98512.60
2018-08-12T23:25:19.545Z,98508.17
2018-08-12T23:28:21.765Z,98498.87
2018-08-12T23:31:24.098Z,98490.29
2018-08-12T23:34:26.484Z,98495.03
2018-08-12T23:37:28.836Z,98485.94
2018-08-12T23:40:31.114Z,98484.52
2018-08-12T23:43:33.417Z,98480.07
2018-08-12T23:46:35.709Z,98474.20
2018-08-12T23:49:38.014Z,98473.80
2018-08-12T23:52:40.236Z,98471.16
2018-08-12T23:55:42.680Z,98471.26
2018-08-12T23:58:45.034Z,98461.75
